sensor_id;sensor_type;location;lat;lon;timestamp;P1;durP1;ratioP1;P2;durP2;ratioP2
61840;SDS011;47773;53.174;6.614;2022-09-09T00:01:08;17.77;;;8.98;;
61840;SDS011;47773;53.174;6.614;2022-09-09T00:03:45;15.98;;;9.15;;
61840;SDS011;47773;53.174;6.614;2022-09-09T00:08:50;24.70;;;9.90;;
61840;SDS011;47773;53.174;6.614;2022-09-09T00:11:26;17.00;;;9.40;;
61840;SDS011;47773;53.174;6.614;2022-09-09T00:13:59;23.55;;;9.38;;
61840;SDS011;47773;53.174;6.614;2022-09-09T00:16:29;17.23;;;9.75;;
61840;SDS011;47773;53.174;6.614;2022-09-09T00:19:07;17.80;;;10.23;;
61840;SDS011;47773;53.174;6.614;2022-09-09T00:21:35;23.48;;;9.88;;
61840;SDS011;47773;53.174;6.614;2022-09-09T00:24:17;15.95;;;10.40;;
61840;SDS011;47773;53.174;6.614;2022-09-09T00:27:04;19.77;;;9.90;;
61840;SDS011;47773;53.174;6.614;2022-09-09T00:32:45;20.38;;;9.82;;
61840;SDS011;47773;53.174;6.614;2022-09-09T00:35:22;20.42;;;10.13;;
61840;SDS011;47773;53.174;6.614;2022-09-09T00:37:50;17.80;;;10.23;;
61840;SDS011;47773;53.174;6.614;2022-09-09T00:40:33;28.60;;;10.13;;
61840;SDS011;47773;53.174;6.614;2022-09-09T00:43:15;20.95;;;10.15;;
61840;SDS011;47773;53.174;6.614;2022-09-09T00:48:57;19.02;;;10.27;;
61840;SDS011;47773;53.174;6.614;2022-09-09T00:57:13;18.63;;;9.90;;
61840;SDS011;47773;53.174;6.614;2022-09-09T01:00:37;15.60;;;9.07;;
61840;SDS011;47773;53.174;6.614;2022-09-09T01:02:56;14.90;;;9.88;;
61840;SDS011;47773;53.174;6.614;2022-09-09T01:11:10;17.00;;;9.65;;
61840;SDS011;47773;53.174;6.614;2022-09-09T01:13:52;19.52;;;9.60;;
61840;SDS011;47773;53.174;6.614;2022-09-09T01:16:24;25.50;;;10.77;;
61840;SDS011;47773;53.174;6.614;2022-09-09T01:18:51;16.50;;;9.65;;
61840;SDS011;47773;53.174;6.614;2022-09-09T01:24:23;18.08;;;10.30;;
61840;SDS011;47773;53.174;6.614;2022-09-09T01:26:51;17.33;;;9.85;;
61840;SDS011;47773;53.174;6.614;2022-09-09T01:29:22;41.23;;;10.63;;
61840;SDS011;47773;53.174;6.614;2022-09-09T01:31:55;16.67;;;9.98;;
61840;SDS011;47773;53.174;6.614;2022-09-09T01:34:23;22.95;;;10.80;;
61840;SDS011;47773;53.174;6.614;2022-09-09T01:39:29;18.10;;;10.07;;
61840;SDS011;47773;53.174;6.614;2022-09-09T01:41:56;18.25;;;10.55;;
61840;SDS011;47773;53.174;6.614;2022-09-09T01:44:22;18.00;;;10.27;;
61840;SDS011;47773;53.174;6.614;2022-09-09T01:46:49;16.80;;;9.98;;
61840;SDS011;47773;53.174;6.614;2022-09-09T01:49:15;21.48;;;11.02;;
61840;SDS011;47773;53.174;6.614;2022-09-09T01:51:41;17.23;;;10.43;;
61840;SDS011;47773;53.174;6.614;2022-09-09T01:54:08;21.63;;;10.45;;
61840;SDS011;47773;53.174;6.614;2022-09-09T02:01:54;23.90;;;10.63;;
61840;SDS011;47773;53.174;6.614;2022-09-09T02:07:29;18.00;;;10.77;;
61840;SDS011;47773;53.174;6.614;2022-09-09T02:10:19;20.53;;;10.53;;
61840;SDS011;47773;53.174;6.614;2022-09-09T02:13:09;15.57;;;10.15;;
61840;SDS011;47773;53.174;6.614;2022-09-09T02:15:45;19.63;;;10.40;;
61840;SDS011;47773;53.174;6.614;2022-09-09T02:18:30;21.40;;;10.27;;
61840;SDS011;47773;53.174;6.614;2022-09-09T02:21:06;21.42;;;10.18;;
61840;SDS011;47773;53.174;6.614;2022-09-09T02:23:32;24.10;;;10.45;;
61840;SDS011;47773;53.174;6.614;2022-09-09T02:25:59;19.38;;;10.05;;
61840;SDS011;47773;53.174;6.614;2022-09-09T02:28:28;19.60;;;10.38;;
61840;SDS011;47773;53.174;6.614;2022-09-09T02:30:57;21.95;;;9.57;;
61840;SDS011;47773;53.174;6.614;2022-09-09T02:33:24;22.33;;;9.93;;
61840;SDS011;47773;53.174;6.614;2022-09-09T02:35:53;20.20;;;10.57;;
61840;SDS011;47773;53.174;6.614;2022-09-09T02:38:26;20.90;;;9.60;;
61840;SDS011;47773;53.174;6.614;2022-09-09T02:40:57;40.03;;;9.85;;
61840;SDS011;47773;53.174;6.614;2022-09-09T02:43:23;18.20;;;9.95;;
61840;SDS011;47773;53.174;6.614;2022-09-09T02:45:58;15.27;;;9.10;;
61840;SDS011;47773;53.174;6.614;2022-09-09T02:48:35;22.23;;;9.60;;
61840;SDS011;47773;53.174;6.614;2022-09-09T02:54:20;22.65;;;9.40;;
61840;SDS011;47773;53.174;6.614;2022-09-09T02:56:57;18.15;;;9.40;;
61840;SDS011;47773;53.174;6.614;2022-09-09T02:59:29;16.15;;;9.80;;
61840;SDS011;47773;53.174;6.614;2022-09-09T03:01:55;15.02;;;9.23;;
61840;SDS011;47773;53.174;6.614;2022-09-09T03:04:21;14.90;;;8.63;;
61840;SDS011;47773;53.174;6.614;2022-09-09T03:06:46;18.70;;;9.43;;
61840;SDS011;47773;53.174;6.614;2022-09-09T03:09:12;14.98;;;8.93;;
61840;SDS011;47773;53.174;6.614;2022-09-09T03:11:38;17.50;;;9.07;;
61840;SDS011;47773;53.174;6.614;2022-09-09T03:14:04;20.17;;;8.63;;
61840;SDS011;47773;53.174;6.614;2022-09-09T03:16:29;13.32;;;7.47;;
61840;SDS011;47773;53.174;6.614;2022-09-09T03:18:55;15.88;;;7.32;;
61840;SDS011;47773;53.174;6.614;2022-09-09T03:21:21;15.77;;;7.93;;
61840;SDS011;47773;53.174;6.614;2022-09-09T03:23:46;15.48;;;7.00;;
61840;SDS011;47773;53.174;6.614;2022-09-09T03:26:12;18.80;;;6.95;;
61840;SDS011;47773;53.174;6.614;2022-09-09T03:28:40;22.83;;;6.97;;
61840;SDS011;47773;53.174;6.614;2022-09-09T03:31:06;12.57;;;6.40;;
61840;SDS011;47773;53.174;6.614;2022-09-09T03:33:37;13.95;;;6.20;;
61840;SDS011;47773;53.174;6.614;2022-09-09T03:36:03;11.90;;;6.40;;
61840;SDS011;47773;53.174;6.614;2022-09-09T03:38:30;12.88;;;6.15;;
61840;SDS011;47773;53.174;6.614;2022-09-09T03:40:57;12.57;;;6.38;;
61840;SDS011;47773;53.174;6.614;2022-09-09T03:43:26;10.70;;;5.68;;
61840;SDS011;47773;53.174;6.614;2022-09-09T03:45:52;10.23;;;6.05;;
61840;SDS011;47773;53.174;6.614;2022-09-09T03:48:22;12.07;;;5.28;;
61840;SDS011;47773;53.174;6.614;2022-09-09T03:50:49;11.05;;;5.30;;
61840;SDS011;47773;53.174;6.614;2022-09-09T03:53:16;10.90;;;5.20;;
61840;SDS011;47773;53.174;6.614;2022-09-09T03:55:46;19.08;;;5.13;;
61840;SDS011;47773;53.174;6.614;2022-09-09T03:58:14;13.27;;;5.00;;
61840;SDS011;47773;53.174;6.614;2022-09-09T04:00:41;13.95;;;4.55;;
61840;SDS011;47773;53.174;6.614;2022-09-09T04:03:10;12.52;;;4.28;;
61840;SDS011;47773;53.174;6.614;2022-09-09T04:05:36;9.80;;;3.97;;
61840;SDS011;47773;53.174;6.614;2022-09-09T04:08:07;10.45;;;3.35;;
61840;SDS011;47773;53.174;6.614;2022-09-09T04:10:33;9.20;;;2.75;;
61840;SDS011;47773;53.174;6.614;2022-09-09T04:13:02;13.32;;;2.70;;
61840;SDS011;47773;53.174;6.614;2022-09-09T04:15:28;8.25;;;2.60;;
61840;SDS011;47773;53.174;6.614;2022-09-09T04:17:55;8.68;;;2.55;;
61840;SDS011;47773;53.174;6.614;2022-09-09T04:20:20;13.20;;;2.80;;
61840;SDS011;47773;53.174;6.614;2022-09-09T04:22:47;6.80;;;2.20;;
61840;SDS011;47773;53.174;6.614;2022-09-09T04:25:13;10.32;;;3.28;;
61840;SDS011;47773;53.174;6.614;2022-09-09T04:27:38;10.10;;;2.78;;
61840;SDS011;47773;53.174;6.614;2022-09-09T04:30:05;7.78;;;2.75;;
61840;SDS011;47773;53.174;6.614;2022-09-09T04:32:32;10.07;;;2.63;;
61840;SDS011;47773;53.174;6.614;2022-09-09T04:34:58;13.68;;;3.15;;
61840;SDS011;47773;53.174;6.614;2022-09-09T04:37:24;10.02;;;3.13;;
61840;SDS011;47773;53.174;6.614;2022-09-09T04:39:50;10.32;;;3.22;;
61840;SDS011;47773;53.174;6.614;2022-09-09T04:42:15;10.02;;;3.40;;
61840;SDS011;47773;53.174;6.614;2022-09-09T04:44:42;12.27;;;3.70;;
61840;SDS011;47773;53.174;6.614;2022-09-09T04:47:09;7.25;;;3.22;;
61840;SDS011;47773;53.174;6.614;2022-09-09T04:49:35;7.13;;;3.60;;
61840;SDS011;47773;53.174;6.614;2022-09-09T04:52:02;8.80;;;3.83;;
61840;SDS011;47773;53.174;6.614;2022-09-09T04:54:28;9.98;;;3.88;;
61840;SDS011;47773;53.174;6.614;2022-09-09T04:56:54;10.32;;;4.30;;
61840;SDS011;47773;53.174;6.614;2022-09-09T04:59:20;12.10;;;4.40;;
61840;SDS011;47773;53.174;6.614;2022-09-09T05:01:46;10.95;;;4.85;;
61840;SDS011;47773;53.174;6.614;2022-09-09T05:04:13;13.23;;;5.13;;
61840;SDS011;47773;53.174;6.614;2022-09-09T05:06:40;13.18;;;5.03;;
61840;SDS011;47773;53.174;6.614;2022-09-09T05:09:07;11.60;;;5.32;;
61840;SDS011;47773;53.174;6.614;2022-09-09T05:11:33;10.52;;;5.47;;
61840;SDS011;47773;53.174;6.614;2022-09-09T05:14:02;15.38;;;6.68;;
61840;SDS011;47773;53.174;6.614;2022-09-09T05:16:28;11.40;;;6.18;;
61840;SDS011;47773;53.174;6.614;2022-09-09T05:18:54;11.10;;;5.60;;
61840;SDS011;47773;53.174;6.614;2022-09-09T05:21:20;27.40;;;6.68;;
61840;SDS011;47773;53.174;6.614;2022-09-09T05:23:48;10.98;;;6.22;;
61840;SDS011;47773;53.174;6.614;2022-09-09T05:26:18;11.43;;;6.70;;
61840;SDS011;47773;53.174;6.614;2022-09-09T05:28:45;12.75;;;7.10;;
61840;SDS011;47773;53.174;6.614;2022-09-09T05:31:12;20.73;;;7.40;;
61840;SDS011;47773;53.174;6.614;2022-09-09T05:33:39;14.05;;;7.03;;
61840;SDS011;47773;53.174;6.614;2022-09-09T05:36:08;14.75;;;7.90;;
61840;SDS011;47773;53.174;6.614;2022-09-09T05:38:35;16.55;;;7.78;;
61840;SDS011;47773;53.174;6.614;2022-09-09T05:41:03;13.93;;;7.70;;
61840;SDS011;47773;53.174;6.614;2022-09-09T05:43:29;13.73;;;7.78;;
61840;SDS011;47773;53.174;6.614;2022-09-09T05:46:02;13.20;;;8.07;;
61840;SDS011;47773;53.174;6.614;2022-09-09T05:48:36;16.08;;;8.55;;
61840;SDS011;47773;53.174;6.614;2022-09-09T05:51:07;17.05;;;8.20;;
61840;SDS011;47773;53.174;6.614;2022-09-09T05:53:35;17.20;;;8.93;;
61840;SDS011;47773;53.174;6.614;2022-09-09T05:56:05;15.88;;;8.52;;
61840;SDS011;47773;53.174;6.614;2022-09-09T05:58:36;17.45;;;8.48;;
61840;SDS011;47773;53.174;6.614;2022-09-09T06:01:07;18.42;;;8.88;;
61840;SDS011;47773;53.174;6.614;2022-09-09T06:03:35;20.50;;;9.13;;
61840;SDS011;47773;53.174;6.614;2022-09-09T06:06:06;16.80;;;9.10;;
61840;SDS011;47773;53.174;6.614;2022-09-09T06:08:34;15.82;;;9.05;;
61840;SDS011;47773;53.174;6.614;2022-09-09T06:11:04;17.42;;;8.40;;
61840;SDS011;47773;53.174;6.614;2022-09-09T06:13:32;17.67;;;8.80;;
61840;SDS011;47773;53.174;6.614;2022-09-09T06:15:57;15.40;;;8.45;;
61840;SDS011;47773;53.174;6.614;2022-09-09T06:18:24;15.10;;;8.18;;
61840;SDS011;47773;53.174;6.614;2022-09-09T06:20:56;16.88;;;8.05;;
61840;SDS011;47773;53.174;6.614;2022-09-09T06:23:26;15.05;;;8.18;;
61840;SDS011;47773;53.174;6.614;2022-09-09T06:26:07;13.65;;;7.55;;
61840;SDS011;47773;53.174;6.614;2022-09-09T06:31:06;10.05;;;7.15;;
61840;SDS011;47773;53.174;6.614;2022-09-09T06:33:37;15.45;;;8.02;;
61840;SDS011;47773;53.174;6.614;2022-09-09T06:38:39;14.52;;;7.05;;
61840;SDS011;47773;53.174;6.614;2022-09-09T06:41:05;13.82;;;7.63;;
61840;SDS011;47773;53.174;6.614;2022-09-09T06:43:33;13.32;;;7.15;;
61840;SDS011;47773;53.174;6.614;2022-09-09T06:46:07;12.75;;;6.65;;
61840;SDS011;47773;53.174;6.614;2022-09-09T06:48:35;12.48;;;7.75;;
61840;SDS011;47773;53.174;6.614;2022-09-09T06:51:06;13.93;;;7.72;;
61840;SDS011;47773;53.174;6.614;2022-09-09T06:53:44;14.80;;;7.80;;
61840;SDS011;47773;53.174;6.614;2022-09-09T06:58:40;15.10;;;8.18;;
61840;SDS011;47773;53.174;6.614;2022-09-09T07:01:12;14.40;;;7.95;;
61840;SDS011;47773;53.174;6.614;2022-09-09T07:03:47;14.15;;;7.50;;
61840;SDS011;47773;53.174;6.614;2022-09-09T07:06:16;19.58;;;7.95;;
61840;SDS011;47773;53.174;6.614;2022-09-09T07:08:44;11.60;;;7.05;;
61840;SDS011;47773;53.174;6.614;2022-09-09T07:11:14;11.48;;;6.90;;
61840;SDS011;47773;53.174;6.614;2022-09-09T07:13:39;15.65;;;7.63;;
61840;SDS011;47773;53.174;6.614;2022-09-09T07:18:32;19.35;;;7.80;;
61840;SDS011;47773;53.174;6.614;2022-09-09T07:20:58;16.00;;;8.13;;
61840;SDS011;47773;53.174;6.614;2022-09-09T07:23:24;12.40;;;7.28;;
61840;SDS011;47773;53.174;6.614;2022-09-09T07:25:50;15.70;;;7.70;;
61840;SDS011;47773;53.174;6.614;2022-09-09T07:28:18;15.82;;;7.72;;
61840;SDS011;47773;53.174;6.614;2022-09-09T07:30:52;12.65;;;6.97;;
61840;SDS011;47773;53.174;6.614;2022-09-09T07:33:19;19.35;;;7.18;;
61840;SDS011;47773;53.174;6.614;2022-09-09T07:35:45;11.70;;;7.43;;
61840;SDS011;47773;53.174;6.614;2022-09-09T07:38:10;14.43;;;7.22;;
61840;SDS011;47773;53.174;6.614;2022-09-09T07:40:36;16.15;;;7.22;;
61840;SDS011;47773;53.174;6.614;2022-09-09T07:43:02;15.68;;;7.40;;
61840;SDS011;47773;53.174;6.614;2022-09-09T07:45:28;15.27;;;7.47;;
61840;SDS011;47773;53.174;6.614;2022-09-09T07:47:54;11.55;;;6.65;;
61840;SDS011;47773;53.174;6.614;2022-09-09T07:50:22;13.43;;;7.03;;
61840;SDS011;47773;53.174;6.614;2022-09-09T07:52:48;15.73;;;7.25;;
61840;SDS011;47773;53.174;6.614;2022-09-09T07:55:15;11.63;;;6.93;;
61840;SDS011;47773;53.174;6.614;2022-09-09T07:57:41;15.63;;;6.68;;
61840;SDS011;47773;53.174;6.614;2022-09-09T08:00:06;9.85;;;6.45;;
61840;SDS011;47773;53.174;6.614;2022-09-09T08:02:32;10.55;;;6.35;;
61840;SDS011;47773;53.174;6.614;2022-09-09T08:04:58;16.67;;;7.00;;
61840;SDS011;47773;53.174;6.614;2022-09-09T08:07:24;13.13;;;6.75;;
61840;SDS011;47773;53.174;6.614;2022-09-09T08:09:51;12.05;;;6.72;;
61840;SDS011;47773;53.174;6.614;2022-09-09T08:12:16;11.75;;;6.97;;
61840;SDS011;47773;53.174;6.614;2022-09-09T08:14:43;16.95;;;6.65;;
61840;SDS011;47773;53.174;6.614;2022-09-09T08:17:08;13.73;;;6.57;;
61840;SDS011;47773;53.174;6.614;2022-09-09T08:19:34;12.43;;;6.82;;
61840;SDS011;47773;53.174;6.614;2022-09-09T08:22:01;11.32;;;6.03;;
61840;SDS011;47773;53.174;6.614;2022-09-09T08:24:28;13.93;;;5.90;;
61840;SDS011;47773;53.174;6.614;2022-09-09T08:26:53;11.00;;;6.15;;
61840;SDS011;47773;53.174;6.614;2022-09-09T08:29:19;11.52;;;6.10;;
61840;SDS011;47773;53.174;6.614;2022-09-09T08:31:49;11.65;;;5.35;;
61840;SDS011;47773;53.174;6.614;2022-09-09T08:34:16;15.80;;;6.10;;
61840;SDS011;47773;53.174;6.614;2022-09-09T08:36:45;12.82;;;5.72;;
61840;SDS011;47773;53.174;6.614;2022-09-09T08:39:13;11.88;;;5.70;;
61840;SDS011;47773;53.174;6.614;2022-09-09T08:47:08;11.07;;;5.55;;
61840;SDS011;47773;53.174;6.614;2022-09-09T08:50:12;11.90;;;6.55;;
61840;SDS011;47773;53.174;6.614;2022-09-09T09:09:29;13.10;;;5.60;;
61840;SDS011;47773;53.174;6.614;2022-09-09T09:12:07;10.77;;;5.50;;
61840;SDS011;47773;53.174;6.614;2022-09-09T09:14:47;12.70;;;5.55;;
61840;SDS011;47773;53.174;6.614;2022-09-09T09:17:14;19.00;;;5.53;;
61840;SDS011;47773;53.174;6.614;2022-09-09T09:19:44;11.15;;;5.57;;
61840;SDS011;47773;53.174;6.614;2022-09-09T09:22:25;11.38;;;5.72;;
61840;SDS011;47773;53.174;6.614;2022-09-09T09:25:02;14.55;;;5.20;;
61840;SDS011;47773;53.174;6.614;2022-09-09T09:30:25;18.35;;;5.95;;
61840;SDS011;47773;53.174;6.614;2022-09-09T09:33:02;10.93;;;4.32;;
61840;SDS011;47773;53.174;6.614;2022-09-09T09:35:35;12.00;;;4.85;;
61840;SDS011;47773;53.174;6.614;2022-09-09T09:38:01;14.07;;;4.80;;
61840;SDS011;47773;53.174;6.614;2022-09-09T09:40:34;17.58;;;4.90;;
61840;SDS011;47773;53.174;6.614;2022-09-09T09:43:00;12.48;;;5.15;;
61840;SDS011;47773;53.174;6.614;2022-09-09T09:47:57;16.60;;;4.85;;
61840;SDS011;47773;53.174;6.614;2022-09-09T09:50:27;13.15;;;4.32;;
61840;SDS011;47773;53.174;6.614;2022-09-09T09:52:56;17.75;;;4.72;;
61840;SDS011;47773;53.174;6.614;2022-09-09T09:55:25;19.25;;;5.60;;
61840;SDS011;47773;53.174;6.614;2022-09-09T09:57:52;19.92;;;4.88;;
61840;SDS011;47773;53.174;6.614;2022-09-09T10:00:22;16.02;;;4.93;;
61840;SDS011;47773;53.174;6.614;2022-09-09T10:02:48;16.67;;;4.47;;
61840;SDS011;47773;53.174;6.614;2022-09-09T10:07:42;15.73;;;4.00;;
61840;SDS011;47773;53.174;6.614;2022-09-09T10:10:20;16.13;;;4.35;;
61840;SDS011;47773;53.174;6.614;2022-09-09T10:12:57;13.00;;;4.30;;
61840;SDS011;47773;53.174;6.614;2022-09-09T10:26:55;11.13;;;2.65;;
61840;SDS011;47773;53.174;6.614;2022-09-09T10:32:24;14.60;;;3.30;;
61840;SDS011;47773;53.174;6.614;2022-09-09T10:35:01;13.52;;;3.38;;
61840;SDS011;47773;53.174;6.614;2022-09-09T10:40:27;18.30;;;3.15;;
61840;SDS011;47773;53.174;6.614;2022-09-09T10:48:54;15.13;;;3.13;;
61840;SDS011;47773;53.174;6.614;2022-09-09T10:51:22;15.45;;;3.35;;
61840;SDS011;47773;53.174;6.614;2022-09-09T10:56:32;13.32;;;2.55;;
61840;SDS011;47773;53.174;6.614;2022-09-09T10:59:04;17.98;;;3.28;;
61840;SDS011;47773;53.174;6.614;2022-09-09T11:01:39;14.95;;;2.50;;
61840;SDS011;47773;53.174;6.614;2022-09-09T11:04:12;9.25;;;2.50;;
61840;SDS011;47773;53.174;6.614;2022-09-09T11:06:44;9.93;;;2.30;;
61840;SDS011;47773;53.174;6.614;2022-09-09T11:09:18;11.57;;;2.35;;
61840;SDS011;47773;53.174;6.614;2022-09-09T11:11:54;11.55;;;2.20;;
61840;SDS011;47773;53.174;6.614;2022-09-09T11:17:10;10.95;;;2.50;;
61840;SDS011;47773;53.174;6.614;2022-09-09T11:19:44;12.60;;;2.13;;
61840;SDS011;47773;53.174;6.614;2022-09-09T11:27:33;12.07;;;2.10;;
61840;SDS011;47773;53.174;6.614;2022-09-09T11:30:26;8.52;;;2.20;;
61840;SDS011;47773;53.174;6.614;2022-09-09T11:33:14;10.55;;;2.10;;
61840;SDS011;47773;53.174;6.614;2022-09-09T11:38:46;9.25;;;2.03;;
61840;SDS011;47773;53.174;6.614;2022-09-09T11:41:16;7.78;;;1.85;;
61840;SDS011;47773;53.174;6.614;2022-09-09T11:43:45;12.57;;;2.40;;
61840;SDS011;47773;53.174;6.614;2022-09-09T11:46:21;13.43;;;2.22;;
61840;SDS011;47773;53.174;6.614;2022-09-09T11:49:02;8.82;;;1.98;;
61840;SDS011;47773;53.174;6.614;2022-09-09T11:51:30;12.02;;;1.80;;
61840;SDS011;47773;53.174;6.614;2022-09-09T11:53:58;8.18;;;2.47;;
61840;SDS011;47773;53.174;6.614;2022-09-09T11:59:27;11.85;;;2.28;;
61840;SDS011;47773;53.174;6.614;2022-09-09T12:07:52;16.05;;;1.80;;
61840;SDS011;47773;53.174;6.614;2022-09-09T12:10:05;7.25;;;2.08;;
61840;SDS011;47773;53.174;6.614;2022-09-09T12:12:44;12.40;;;1.75;;
61840;SDS011;47773;53.174;6.614;2022-09-09T12:17:41;11.63;;;1.98;;
61840;SDS011;47773;53.174;6.614;2022-09-09T12:30:56;9.90;;;1.80;;
61840;SDS011;47773;53.174;6.614;2022-09-09T12:33:43;15.00;;;2.00;;
61840;SDS011;47773;53.174;6.614;2022-09-09T12:36:30;7.60;;;1.80;;
61840;SDS011;47773;53.174;6.614;2022-09-09T12:38:59;9.95;;;1.60;;
61840;SDS011;47773;53.174;6.614;2022-09-09T12:41:50;11.35;;;1.77;;
61840;SDS011;47773;53.174;6.614;2022-09-09T12:44:23;6.75;;;1.75;;
61840;SDS011;47773;53.174;6.614;2022-09-09T12:46:50;16.33;;;2.13;;
61840;SDS011;47773;53.174;6.614;2022-09-09T12:49:31;11.15;;;2.17;;
61840;SDS011;47773;53.174;6.614;2022-09-09T12:52:13;10.40;;;1.90;;
61840;SDS011;47773;53.174;6.614;2022-09-09T12:54:49;9.93;;;2.10;;
61840;SDS011;47773;53.174;6.614;2022-09-09T12:57:18;9.90;;;2.72;;
61840;SDS011;47773;53.174;6.614;2022-09-09T12:59:46;19.73;;;2.80;;
61840;SDS011;47773;53.174;6.614;2022-09-09T13:02:18;8.90;;;2.15;;
61840;SDS011;47773;53.174;6.614;2022-09-09T13:04:44;12.27;;;2.10;;
61840;SDS011;47773;53.174;6.614;2022-09-09T13:07:12;8.05;;;2.20;;
61840;SDS011;47773;53.174;6.614;2022-09-09T13:09:38;9.45;;;1.95;;
61840;SDS011;47773;53.174;6.614;2022-09-09T13:12:05;9.23;;;2.00;;
61840;SDS011;47773;53.174;6.614;2022-09-09T13:14:47;9.18;;;2.00;;
61840;SDS011;47773;53.174;6.614;2022-09-09T13:17:22;14.60;;;1.80;;
61840;SDS011;47773;53.174;6.614;2022-09-09T13:19:54;8.82;;;2.30;;
61840;SDS011;47773;53.174;6.614;2022-09-09T13:25:04;9.83;;;2.17;;
61840;SDS011;47773;53.174;6.614;2022-09-09T13:30:18;9.65;;;2.53;;
61840;SDS011;47773;53.174;6.614;2022-09-09T13:35:45;6.75;;;1.75;;
61840;SDS011;47773;53.174;6.614;2022-09-09T13:38:22;7.43;;;1.45;;
61840;SDS011;47773;53.174;6.614;2022-09-09T13:43:30;12.00;;;1.67;;
61840;SDS011;47773;53.174;6.614;2022-09-09T13:45:59;7.28;;;1.73;;
61840;SDS011;47773;53.174;6.614;2022-09-09T13:48:53;10.48;;;1.73;;
61840;SDS011;47773;53.174;6.614;2022-09-09T13:51:33;8.00;;;2.10;;
61840;SDS011;47773;53.174;6.614;2022-09-09T13:54:08;9.18;;;1.75;;
61840;SDS011;47773;53.174;6.614;2022-09-09T13:56:36;7.60;;;1.65;;
61840;SDS011;47773;53.174;6.614;2022-09-09T13:59:04;10.68;;;2.00;;
61840;SDS011;47773;53.174;6.614;2022-09-09T14:01:31;5.63;;;1.40;;
61840;SDS011;47773;53.174;6.614;2022-09-09T14:03:59;4.13;;;0.93;;
61840;SDS011;47773;53.174;6.614;2022-09-09T14:06:25;3.35;;;0.82;;
61840;SDS011;47773;53.174;6.614;2022-09-09T14:08:51;4.93;;;0.73;;
61840;SDS011;47773;53.174;6.614;2022-09-09T14:11:17;9.00;;;1.20;;
61840;SDS011;47773;53.174;6.614;2022-09-09T14:13:47;9.60;;;1.08;;
61840;SDS011;47773;53.174;6.614;2022-09-09T14:16:15;4.93;;;0.93;;
61840;SDS011;47773;53.174;6.614;2022-09-09T14:18:42;3.85;;;0.70;;
61840;SDS011;47773;53.174;6.614;2022-09-09T14:21:09;3.90;;;0.80;;
61840;SDS011;47773;53.174;6.614;2022-09-09T14:23:38;3.67;;;0.93;;
61840;SDS011;47773;53.174;6.614;2022-09-09T14:26:04;7.03;;;1.00;;
61840;SDS011;47773;53.174;6.614;2022-09-09T14:28:31;9.35;;;1.20;;
61840;SDS011;47773;53.174;6.614;2022-09-09T14:31:01;5.72;;;1.48;;
61840;SDS011;47773;53.174;6.614;2022-09-09T14:33:29;6.50;;;1.20;;
61840;SDS011;47773;53.174;6.614;2022-09-09T14:35:55;6.43;;;1.35;;
61840;SDS011;47773;53.174;6.614;2022-09-09T14:38:26;6.28;;;1.20;;
61840;SDS011;47773;53.174;6.614;2022-09-09T14:40:54;9.95;;;1.83;;
61840;SDS011;47773;53.174;6.614;2022-09-09T14:43:21;7.60;;;1.30;;
61840;SDS011;47773;53.174;6.614;2022-09-09T14:45:47;11.13;;;2.03;;
61840;SDS011;47773;53.174;6.614;2022-09-09T14:48:16;7.72;;;1.60;;
61840;SDS011;47773;53.174;6.614;2022-09-09T14:50:42;8.40;;;1.88;;
61840;SDS011;47773;53.174;6.614;2022-09-09T14:53:08;5.80;;;1.10;;
61840;SDS011;47773;53.174;6.614;2022-09-09T14:55:35;4.90;;;1.63;;
61840;SDS011;47773;53.174;6.614;2022-09-09T14:58:02;6.70;;;1.33;;
61840;SDS011;47773;53.174;6.614;2022-09-09T15:00:29;4.93;;;1.67;;
61840;SDS011;47773;53.174;6.614;2022-09-09T15:02:55;8.85;;;2.13;;
61840;SDS011;47773;53.174;6.614;2022-09-09T15:05:21;7.88;;;1.75;;
61840;SDS011;47773;53.174;6.614;2022-09-09T15:07:47;8.55;;;2.20;;
61840;SDS011;47773;53.174;6.614;2022-09-09T15:10:13;6.97;;;1.60;;
61840;SDS011;47773;53.174;6.614;2022-09-09T15:12:39;12.82;;;2.35;;
61840;SDS011;47773;53.174;6.614;2022-09-09T15:15:07;8.07;;;2.00;;
61840;SDS011;47773;53.174;6.614;2022-09-09T15:17:33;8.52;;;1.83;;
61840;SDS011;47773;53.174;6.614;2022-09-09T15:19:59;6.20;;;1.70;;
61840;SDS011;47773;53.174;6.614;2022-09-09T15:22:25;8.20;;;2.05;;
61840;SDS011;47773;53.174;6.614;2022-09-09T15:24:50;9.00;;;1.98;;
61840;SDS011;47773;53.174;6.614;2022-09-09T15:27:16;7.15;;;1.85;;
61840;SDS011;47773;53.174;6.614;2022-09-09T15:29:43;9.25;;;2.00;;
61840;SDS011;47773;53.174;6.614;2022-09-09T15:32:09;9.35;;;2.03;;
61840;SDS011;47773;53.174;6.614;2022-09-09T15:34:35;6.10;;;1.60;;
61840;SDS011;47773;53.174;6.614;2022-09-09T15:37:00;3.53;;;1.30;;
61840;SDS011;47773;53.174;6.614;2022-09-09T15:39:26;4.60;;;1.17;;
61840;SDS011;47773;53.174;6.614;2022-09-09T15:41:52;6.57;;;1.30;;
61840;SDS011;47773;53.174;6.614;2022-09-09T15:44:18;3.60;;;1.10;;
61840;SDS011;47773;53.174;6.614;2022-09-09T15:46:50;4.97;;;1.45;;
61840;SDS011;47773;53.174;6.614;2022-09-09T15:49:22;4.55;;;1.27;;
61840;SDS011;47773;53.174;6.614;2022-09-09T15:51:57;2.78;;;0.93;;
61840;SDS011;47773;53.174;6.614;2022-09-09T15:54:27;4.88;;;1.10;;
61840;SDS011;47773;53.174;6.614;2022-09-09T15:56:57;4.93;;;1.10;;
61840;SDS011;47773;53.174;6.614;2022-09-09T15:59:25;6.53;;;1.17;;
61840;SDS011;47773;53.174;6.614;2022-09-09T16:01:55;4.82;;;1.00;;
61840;SDS011;47773;53.174;6.614;2022-09-09T16:04:22;4.32;;;1.02;;
61840;SDS011;47773;53.174;6.614;2022-09-09T16:06:52;5.78;;;1.10;;
61840;SDS011;47773;53.174;6.614;2022-09-09T16:09:19;6.38;;;1.33;;
61840;SDS011;47773;53.174;6.614;2022-09-09T16:11:46;8.70;;;1.30;;
61840;SDS011;47773;53.174;6.614;2022-09-09T16:14:13;3.47;;;1.38;;
61840;SDS011;47773;53.174;6.614;2022-09-09T16:16:40;8.88;;;1.83;;
61840;SDS011;47773;53.174;6.614;2022-09-09T16:19:08;6.35;;;1.77;;
61840;SDS011;47773;53.174;6.614;2022-09-09T16:21:39;5.32;;;1.40;;
61840;SDS011;47773;53.174;6.614;2022-09-09T16:24:08;9.02;;;1.60;;
61840;SDS011;47773;53.174;6.614;2022-09-09T16:26:36;6.40;;;1.50;;
61840;SDS011;47773;53.174;6.614;2022-09-09T16:29:03;7.57;;;1.48;;
61840;SDS011;47773;53.174;6.614;2022-09-09T16:31:30;7.05;;;1.38;;
61840;SDS011;47773;53.174;6.614;2022-09-09T16:33:59;5.85;;;1.30;;
61840;SDS011;47773;53.174;6.614;2022-09-09T16:36:26;7.25;;;1.60;;
61840;SDS011;47773;53.174;6.614;2022-09-09T16:38:53;7.90;;;1.65;;
61840;SDS011;47773;53.174;6.614;2022-09-09T16:41:20;3.65;;;1.10;;
61840;SDS011;47773;53.174;6.614;2022-09-09T16:43:46;6.78;;;1.58;;
61840;SDS011;47773;53.174;6.614;2022-09-09T16:46:12;6.35;;;1.60;;
61840;SDS011;47773;53.174;6.614;2022-09-09T16:48:43;4.63;;;1.45;;
61840;SDS011;47773;53.174;6.614;2022-09-09T16:51:17;6.93;;;1.30;;
61840;SDS011;47773;53.174;6.614;2022-09-09T16:53:44;6.40;;;1.48;;
61840;SDS011;47773;53.174;6.614;2022-09-09T16:56:14;7.82;;;1.67;;
61840;SDS011;47773;53.174;6.614;2022-09-09T16:58:41;5.35;;;1.30;;
61840;SDS011;47773;53.174;6.614;2022-09-09T17:01:10;4.18;;;1.40;;
61840;SDS011;47773;53.174;6.614;2022-09-09T17:03:39;7.13;;;1.42;;
61840;SDS011;47773;53.174;6.614;2022-09-09T17:06:09;4.03;;;1.55;;
61840;SDS011;47773;53.174;6.614;2022-09-09T17:08:39;10.48;;;1.80;;
61840;SDS011;47773;53.174;6.614;2022-09-09T17:11:16;4.75;;;1.50;;
61840;SDS011;47773;53.174;6.614;2022-09-09T17:13:43;6.57;;;1.83;;
61840;SDS011;47773;53.174;6.614;2022-09-09T17:16:11;6.38;;;1.98;;
61840;SDS011;47773;53.174;6.614;2022-09-09T17:18:38;3.05;;;1.27;;
61840;SDS011;47773;53.174;6.614;2022-09-09T17:21:05;5.05;;;1.70;;